Time;durP1;ratioP1;P1;durP2;ratioP2;P2;SDS_P1;SDS_P2;PMS_P1;PMS_P2;Temp;Humidity;BMP_temperature;BMP_pressure;BME280_temperature;BME280_humidity;BME280_pressure;Samples;Min_cycle;Max_cycle;Signal;HPM_P1;HPM_P2
2023/05/03 00:00:16;;;;;;;9.30;2.90;;;7.10;99.90;;;;;;5103151;28;20043;-52
2023/05/03 00:02:43;;;;;;;5.57;2.55;;;7.00;99.90;;;;;;5102602;28;20051;-55
2023/05/03 00:05:13;;;;;;;5.30;2.72;;;7.10;99.90;;;;;;5102985;28;20182;-49
2023/05/03 00:07:42;;;;;;;6.60;2.55;;;7.00;99.90;;;;;;5085894;28;20044;-55
2023/05/03 00:10:12;;;;;;;5.88;2.38;;;7.00;99.90;;;;;;5103540;28;20067;-57
2023/05/03 00:12:39;;;;;;;4.07;2.50;;;7.00;99.90;;;;;;5102645;27;20047;-49
2023/05/03 00:15:06;;;;;;;4.82;2.40;;;7.20;99.90;;;;;;5103077;27;20035;-56
2023/05/03 00:17:32;;;;;;;5.45;2.60;;;7.00;99.90;;;;;;5102330;28;20096;-57
2023/05/03 00:19:58;;;;;;;6.82;2.50;;;7.00;99.90;;;;;;5102094;28;20040;-57
2023/05/03 00:22:24;;;;;;;4.25;2.35;;;7.00;99.90;;;;;;5102676;28;20047;-52
2023/05/03 00:24:50;;;;;;;6.68;2.50;;;7.00;99.90;;;;;;5102724;28;20514;-51
2023/05/03 00:27:17;;;;;;;5.97;2.30;;;7.00;99.90;;;;;;5103062;28;20135;-59
2023/05/03 00:29:42;;;;;;;5.60;2.53;;;7.10;99.90;;;;;;5102720;27;20050;-49
2023/05/03 00:32:09;;;;;;;5.50;2.47;;;7.10;99.90;;;;;;5101028;28;20055;-55
2023/05/03 00:34:36;;;;;;;5.55;2.40;;;7.10;99.90;;;;;;5102505;28;20510;-54
2023/05/03 00:37:01;;;;;;;6.72;2.58;;;7.00;99.90;;;;;;5101966;28;20051;-56
2023/05/03 00:39:30;;;;;;;6.07;2.80;;;7.00;99.90;;;;;;5102590;27;20153;-57
2023/05/03 00:42:00;;;;;;;7.50;2.95;;;7.10;99.90;;;;;;5102231;28;20051;-54
2023/05/03 00:44:26;;;;;;;6.10;2.67;;;7.10;99.90;;;;;;5083684;28;20521;-58
2023/05/03 00:46:53;;;;;;;5.72;2.60;;;7.10;99.90;;;;;;5101868;28;20043;-58
2023/05/03 00:49:19;;;;;;;7.47;2.70;;;7.20;99.90;;;;;;5102250;28;20333;-52
2023/05/03 00:51:44;;;;;;;7.47;3.17;;;7.20;99.90;;;;;;5100215;28;20051;-57
2023/05/03 00:54:11;;;;;;;6.75;2.58;;;7.20;99.90;;;;;;5102915;28;20146;-56
2023/05/03 00:56:37;;;;;;;5.43;2.63;;;7.10;99.90;;;;;;5102459;28;20047;-58
2023/05/03 00:59:05;;;;;;;6.20;2.90;;;7.10;99.90;;;;;;5102095;28;20051;-54
2023/05/03 01:01:31;;;;;;;6.55;3.00;;;7.00;99.90;;;;;;5100824;28;20675;-56
2023/05/03 01:03:59;;;;;;;7.82;3.45;;;6.90;99.90;;;;;;5101801;28;20104;-49
2023/05/03 01:06:40;;;;;;;8.65;3.33;;;6.90;99.90;;;;;;5083535;28;20092;-52
2023/05/03 01:09:21;;;;;;;7.97;3.03;;;6.90;99.90;;;;;;5100085;28;20047;-54
2023/05/03 01:12:09;;;;;;;7.57;3.25;;;6.80;99.90;;;;;;5101943;28;20145;-50
2023/05/03 01:15:01;;;;;;;6.82;3.30;;;6.80;99.90;;;;;;5149810;22;21101;-55
2023/05/03 01:18:11;;;;;;;6.50;3.15;;;6.80;99.90;;;;;;5057470;28;20502;-56
2023/05/03 01:20:40;;;;;;;7.65;3.40;;;6.80;99.90;;;;;;4975281;28;20472;-56
2023/05/03 01:23:17;;;;;;;6.47;3.42;;;6.80;99.90;;;;;;5031155;28;20087;-54
2023/05/03 01:25:43;;;;;;;6.97;2.97;;;6.80;99.90;;;;;;5041096;28;20098;-52
2023/05/03 01:28:08;;;;;;;7.53;3.40;;;6.80;99.90;;;;;;5040712;28;20049;-57
2023/05/03 01:30:36;;;;;;;6.82;3.42;;;6.80;99.90;;;;;;5041643;28;20510;-58
2023/05/03 01:33:27;;;;;;;6.30;3.33;;;6.80;99.90;;;;;;5039431;28;20060;-53
2023/05/03 01:36:07;;;;;;;10.57;3.95;;;6.90;99.90;;;;;;5041458;28;20130;-57
2023/05/03 01:38:36;;;;;;;8.68;3.50;;;6.80;99.90;;;;;;5040863;28;20041;-58
2023/05/03 01:41:07;;;;;;;5.85;3.38;;;6.80;99.90;;;;;;5041093;28;20378;-52
2023/05/03 01:43:33;;;;;;;11.85;3.85;;;6.90;99.90;;;;;;5041222;28;20053;-56
2023/05/03 01:45:59;;;;;;;7.82;3.38;;;6.90;99.90;;;;;;5040471;28;20060;-53
2023/05/03 01:48:25;;;;;;;7.47;3.78;;;7.00;99.90;;;;;;5040605;28;20029;-51
2023/05/03 01:50:50;;;;;;;5.55;3.05;;;7.00;99.90;;;;;;5041521;28;20052;-57
2023/05/03 01:53:16;;;;;;;6.45;3.17;;;7.10;99.90;;;;;;5039890;28;20056;-53
2023/05/03 01:55:41;;;;;;;6.70;3.15;;;7.10;99.90;;;;;;5041051;28;20049;-57
2023/05/03 01:58:07;;;;;;;7.53;3.53;;;7.10;99.90;;;;;;5040499;28;20128;-53
2023/05/03 02:00:33;;;;;;;4.90;3.10;;;7.10;99.90;;;;;;5040664;28;20080;-56
2023/05/03 02:02:58;;;;;;;7.78;3.58;;;7.20;99.90;;;;;;5039618;28;20045;-58
2023/05/03 02:05:24;;;;;;;12.05;3.80;;;7.20;99.90;;;;;;5040941;28;20044;-55
2023/05/03 02:07:50;;;;;;;8.73;3.30;;;7.20;99.90;;;;;;5039655;28;20061;-53
2023/05/03 02:10:16;;;;;;;5.95;3.33;;;7.20;99.90;;;;;;5040327;28;20041;-54
2023/05/03 02:12:43;;;;;;;9.10;3.40;;;7.10;99.90;;;;;;5040833;28;20045;-56
2023/05/03 02:15:10;;;;;;;8.18;3.22;;;7.10;99.90;;;;;;5040949;28;20064;-52
2023/05/03 02:17:36;;;;;;;6.82;3.47;;;7.10;99.90;;;;;;5038955;28;20457;-55
2023/05/03 02:20:04;;;;;;;8.25;3.50;;;7.10;99.90;;;;;;5040023;28;20056;-54
2023/05/03 02:22:30;;;;;;;5.07;2.83;;;7.10;99.90;;;;;;5041153;28;20049;-58
2023/05/03 02:24:57;;;;;;;6.80;3.08;;;7.10;99.90;;;;;;5040455;28;20195;-52
2023/05/03 02:27:23;;;;;;;4.40;2.80;;;7.10;99.90;;;;;;5039944;28;20045;-53
2023/05/03 02:29:49;;;;;;;5.38;3.03;;;7.00;99.90;;;;;;5041002;28;20450;-55
2023/05/03 02:32:14;;;;;;;5.50;3.13;;;7.10;99.90;;;;;;5040313;28;20051;-58
2023/05/03 02:34:40;;;;;;;6.95;3.30;;;7.10;99.90;;;;;;5040392;28;20040;-56
2023/05/03 02:37:06;;;;;;;7.25;3.00;;;7.20;99.90;;;;;;5040746;28;20414;-54
2023/05/03 02:39:31;;;;;;;6.53;3.58;;;7.10;99.90;;;;;;5040589;28;20037;-52
2023/05/03 02:41:57;;;;;;;5.68;2.80;;;7.00;99.90;;;;;;5044480;28;20041;-57
2023/05/03 02:44:23;;;;;;;5.30;3.05;;;7.10;99.90;;;;;;5043754;28;20086;-56
2023/05/03 02:46:48;;;;;;;5.72;3.05;;;7.10;99.90;;;;;;5044226;28;20471;-58
2023/05/03 02:49:14;;;;;;;8.48;3.28;;;7.10;99.90;;;;;;5044341;28;20114;-55
2023/05/03 02:51:40;;;;;;;6.00;2.90;;;7.10;99.90;;;;;;5043565;28;20103;-54
2023/05/03 02:54:05;;;;;;;5.82;2.92;;;7.10;99.90;;;;;;5044349;28;20532;-57
2023/05/03 02:56:32;;;;;;;8.23;2.95;;;7.10;99.90;;;;;;5043966;28;20120;-49
2023/05/03 02:58:58;;;;;;;5.70;3.10;;;7.10;99.90;;;;;;5044179;28;20041;-56
2023/05/03 03:01:23;;;;;;;7.55;3.38;;;7.10;99.90;;;;;;5042638;28;20048;-54
2023/05/03 03:03:49;;;;;;;7.00;3.03;;;7.10;99.90;;;;;;5044155;28;20294;-54
2023/05/03 03:06:14;;;;;;;6.15;3.30;;;7.10;99.90;;;;;;5044160;28;20521;-58
2023/05/03 03:08:40;;;;;;;6.40;2.80;;;7.10;99.90;;;;;;5043426;28;20696;-51
2023/05/03 03:11:06;;;;;;;6.57;2.97;;;7.10;99.90;;;;;;5043718;28;20045;-56
2023/05/03 03:13:32;;;;;;;6.15;2.92;;;7.10;99.90;;;;;;5043811;28;20047;-51
2023/05/03 03:15:57;;;;;;;5.43;3.13;;;7.20;99.90;;;;;;5042682;28;20118;-54
2023/05/03 03:18:23;;;;;;;6.05;2.75;;;7.30;99.90;;;;;;5043277;28;20041;-58
2023/05/03 03:20:49;;;;;;;7.38;2.92;;;7.40;99.90;;;;;;5044155;28;20065;-57
2023/05/03 03:23:14;;;;;;;7.13;3.10;;;7.40;99.90;;;;;;5043804;28;20044;-56
2023/05/03 03:25:41;;;;;;;6.13;3.25;;;7.50;99.90;;;;;;5042734;28;20128;-54
2023/05/03 03:28:07;;;;;;;7.15;2.90;;;7.50;99.90;;;;;;5025574;28;20045;-58
2023/05/03 03:30:32;;;;;;;4.88;3.10;;;7.50;99.90;;;;;;5042468;28;20287;-58
2023/05/03 03:32:58;;;;;;;5.80;2.97;;;7.50;99.90;;;;;;5042488;28;20530;-53
2023/05/03 03:35:24;;;;;;;5.72;3.00;;;7.60;99.90;;;;;;5042711;28;20144;-55
2023/05/03 03:37:50;;;;;;;6.97;2.85;;;7.20;99.90;;;;;;5043611;28;20391;-55
2023/05/03 03:40:15;;;;;;;5.88;2.97;;;7.60;99.90;;;;;;5043301;28;20126;-56
2023/05/03 03:42:41;;;;;;;6.80;2.60;;;7.60;99.90;;;;;;5042747;28;20040;-57
2023/05/03 03:45:07;;;;;;;10.02;3.17;;;7.60;99.90;;;;;;5043427;28;20503;-56
2023/05/03 03:47:33;;;;;;;6.50;2.80;;;7.60;99.90;;;;;;5042449;28;20041;-55
2023/05/03 03:50:02;;;;;;;7.10;2.80;;;7.50;99.90;;;;;;5043154;28;20040;-54
2023/05/03 03:52:27;;;;;;;7.07;2.75;;;7.60;99.90;;;;;;5042982;28;20041;-58
2023/05/03 03:54:53;;;;;;;5.13;2.67;;;7.70;99.90;;;;;;5042996;28;20060;-56
2023/05/03 03:57:19;;;;;;;5.40;2.50;;;7.60;99.90;;;;;;5042355;28;20514;-53
2023/05/03 03:59:44;;;;;;;5.22;2.35;;;7.60;99.90;;;;;;5040827;28;20531;-56
2023/05/03 04:02:10;;;;;;;5.30;2.60;;;7.70;99.90;;;;;;5040837;28;20063;-58
2023/05/03 04:04:36;;;;;;;7.57;2.85;;;7.60;99.90;;;;;;5041444;28;20400;-49
2023/05/03 04:07:02;;;;;;;5.15;2.42;;;7.70;99.90;;;;;;5042391;28;20503;-55
2023/05/03 04:09:27;;;;;;;7.35;2.90;;;7.70;99.90;;;;;;5042385;28;20514;-52
2023/05/03 04:11:53;;;;;;;3.95;2.47;;;7.60;99.90;;;;;;5043156;28;20033;-55
2023/05/03 04:14:19;;;;;;;6.00;2.72;;;7.60;99.90;;;;;;5042833;28;20052;-59
2023/05/03 04:16:44;;;;;;;5.57;2.72;;;7.40;99.90;;;;;;5040113;28;20412;-57
2023/05/03 04:19:10;;;;;;;6.53;2.70;;;7.40;99.90;;;;;;5042566;28;20041;-55
2023/05/03 04:21:36;;;;;;;5.13;2.65;;;7.60;99.90;;;;;;5041121;28;20124;-55
2023/05/03 04:24:05;;;;;;;4.85;2.60;;;7.40;99.90;;;;;;5041666;28;20613;-57
2023/05/03 04:26:31;;;;;;;5.40;2.75;;;7.40;99.90;;;;;;5042386;28;20052;-57
2023/05/03 04:28:57;;;;;;;4.53;2.75;;;7.30;99.90;;;;;;5042165;28;20400;-51
2023/05/03 04:31:24;;;;;;;7.18;3.10;;;7.30;99.90;;;;;;5041868;28;20308;-56
2023/05/03 04:33:49;;;;;;;6.93;3.13;;;7.20;99.90;;;;;;5041693;28;20045;-55
2023/05/03 04:36:15;;;;;;;6.15;2.90;;;7.20;99.90;;;;;;5042374;28;20056;-58
2023/05/03 04:38:44;;;;;;;7.93;3.50;;;7.10;99.90;;;;;;5042224;28;20041;-55
2023/05/03 04:41:10;;;;;;;3.70;2.83;;;7.10;99.90;;;;;;5041632;28;20469;-50
2023/05/03 04:43:36;;;;;;;4.65;3.13;;;7.10;99.90;;;;;;5042571;28;20400;-58
2023/05/03 04:46:02;;;;;;;4.97;2.80;;;7.10;99.90;;;;;;5041275;28;20047;-48
2023/05/03 04:48:29;;;;;;;8.45;3.25;;;7.50;99.90;;;;;;5040978;28;20056;-52
2023/05/03 04:50:55;;;;;;;5.95;3.00;;;7.20;99.90;;;;;;5042121;28;20523;-56
2023/05/03 04:53:20;;;;;;;5.85;3.00;;;7.20;99.90;;;;;;5041668;28;20116;-58
2023/05/03 04:55:46;;;;;;;7.78;3.20;;;7.10;99.90;;;;;;5042020;28;20128;-48
2023/05/03 04:58:12;;;;;;;8.68;3.08;;;7.10;99.90;;;;;;5041237;28;20175;-52
2023/05/03 05:00:40;;;;;;;6.95;2.90;;;7.10;99.90;;;;;;5041608;28;20471;-55
2023/05/03 05:03:06;;;;;;;5.72;2.88;;;7.20;99.90;;;;;;5040540;28;20534;-57
2023/05/03 05:05:32;;;;;;;4.90;2.80;;;7.20;99.90;;;;;;5041061;28;20052;-58
2023/05/03 05:07:58;;;;;;;3.80;2.65;;;7.20;99.90;;;;;;5041858;28;20047;-55
2023/05/03 05:10:24;;;;;;;5.32;2.90;;;7.30;99.90;;;;;;5041972;28;20056;-54
2023/05/03 05:12:49;;;;;;;5.93;2.75;;;7.30;99.90;;;;;;5041332;28;20057;-56
2023/05/03 05:15:15;;;;;;;7.40;2.90;;;7.70;99.90;;;;;;5039896;28;20590;-58
2023/05/03 05:17:41;;;;;;;7.63;2.60;;;7.40;99.90;;;;;;5040765;28;20463;-53
2023/05/03 05:20:11;;;;;;;5.78;2.63;;;7.40;99.90;;;;;;5041421;28;20117;-53
2023/05/03 05:22:37;;;;;;;5.00;2.83;;;7.50;99.90;;;;;;5039474;28;20052;-51
2023/05/03 05:25:03;;;;;;;5.25;2.60;;;7.50;99.90;;;;;;5041560;28;20043;-56
2023/05/03 05:27:29;;;;;;;6.70;2.70;;;7.60;99.90;;;;;;5041315;28;20049;-52
2023/05/03 05:29:55;;;;;;;5.63;2.95;;;7.60;99.90;;;;;;5040818;28;20208;-55
2023/05/03 05:32:21;;;;;;;8.55;2.45;;;7.60;99.90;;;;;;5040535;28;20036;-57
2023/05/03 05:34:51;;;;;;;4.72;2.08;;;7.80;99.90;;;;;;5041144;28;20033;-57
2023/05/03 05:37:17;;;;;;;5.05;1.90;;;7.80;99.90;;;;;;5040414;28;20423;-55
2023/05/03 05:39:44;;;;;;;4.38;1.90;;;8.10;99.90;;;;;;5039799;28;20149;-58
2023/05/03 05:42:09;;;;;;;4.68;2.10;;;7.80;99.90;;;;;;5041190;28;20047;-59
2023/05/03 05:44:35;;;;;;;5.22;2.00;;;7.90;99.90;;;;;;5040820;28;20475;-57
2023/05/03 05:47:01;;;;;;;7.78;2.20;;;8.00;99.90;;;;;;5039516;28;20048;-53
2023/05/03 05:49:27;;;;;;;4.90;1.67;;;8.10;99.90;;;;;;5041191;28;20033;-54
2023/05/03 05:51:53;;;;;;;3.97;1.63;;;8.10;99.90;;;;;;5041135;28;20492;-54
2023/05/03 05:54:18;;;;;;;2.70;1.50;;;8.30;99.90;;;;;;5040392;28;20040;-58
2023/05/03 05:56:44;;;;;;;4.63;1.60;;;8.20;99.90;;;;;;5040863;28;20049;-56
2023/05/03 05:59:10;;;;;;;6.93;2.13;;;8.30;99.90;;;;;;5040603;28;20033;-55
2023/05/03 06:01:35;;;;;;;6.55;1.60;;;8.30;99.90;;;;;;5039851;28;20136;-56
2023/05/03 06:04:01;;;;;;;6.47;1.95;;;8.30;99.90;;;;;;5040533;28;20044;-56
2023/05/03 06:06:27;;;;;;;4.30;1.60;;;8.40;99.90;;;;;;5041107;28;20045;-54
2023/05/03 06:08:52;;;;;;;3.08;1.67;;;8.60;99.90;;;;;;5040944;28;20145;-53
2023/05/03 06:11:18;;;;;;;6.82;1.92;;;8.40;99.90;;;;;;5040000;28;20245;-54
2023/05/03 06:13:44;;;;;;;8.32;1.80;;;8.50;99.90;;;;;;5039961;28;20471;-56
2023/05/03 06:16:10;;;;;;;5.15;1.83;;;8.50;99.90;;;;;;5044231;28;20123;-58
2023/05/03 06:18:36;;;;;;;3.92;1.60;;;8.60;99.90;;;;;;5044841;28;20041;-54
2023/05/03 06:21:01;;;;;;;8.45;1.80;;;8.60;99.90;;;;;;5044399;28;20126;-52
2023/05/03 06:23:27;;;;;;;8.73;1.60;;;8.60;99.90;;;;;;5045014;28;20455;-56
2023/05/03 06:25:53;;;;;;;5.63;1.80;;;8.60;99.90;;;;;;5044614;28;20522;-58
2023/05/03 06:28:18;;;;;;;4.13;1.58;;;8.60;99.90;;;;;;5044394;28;20049;-58
2023/05/03 06:30:50;;;;;;;2.95;1.38;;;8.60;99.90;;;;;;5043829;28;20045;-55
2023/05/03 06:33:16;;;;;;;4.20;1.80;;;8.60;99.90;;;;;;5044568;28;20076;-55
2023/05/03 06:35:42;;;;;;;6.32;2.28;;;8.70;99.90;;;;;;5044130;28;20099;-58
2023/05/03 06:38:08;;;;;;;6.10;1.50;;;8.70;99.90;;;;;;5044399;28;20045;-52
2023/05/03 06:40:34;;;;;;;4.03;1.40;;;8.80;99.90;;;;;;5042937;28;20476;-53
2023/05/03 06:42:59;;;;;;;3.45;1.50;;;8.80;99.90;;;;;;5044506;28;20042;-48
2023/05/03 06:45:25;;;;;;;6.20;1.58;;;8.80;99.90;;;;;;5043038;28;20033;-57
2023/05/03 06:47:50;;;;;;;4.72;1.63;;;8.80;99.90;;;;;;5044317;28;20434;-56
2023/05/03 06:50:18;;;;;;;3.63;1.75;;;8.80;99.90;;;;;;5042799;28;20047;-53
2023/05/03 06:52:45;;;;;;;3.72;1.50;;;8.90;99.90;;;;;;5042018;28;20045;-56
2023/05/03 06:55:11;;;;;;;5.13;1.70;;;8.90;99.90;;;;;;5044369;28;20033;-58
2023/05/03 06:57:37;;;;;;;3.53;1.83;;;8.90;99.90;;;;;;5043710;28;20390;-48
2023/05/03 07:00:06;;;;;;;4.10;1.60;;;8.90;99.90;;;;;;5044097;28;20040;-52
2023/05/03 07:02:32;;;;;;;6.57;1.85;;;8.90;99.90;;;;;;5043570;28;20044;-50
2023/05/03 07:04:57;;;;;;;6.00;2.00;;;8.90;99.90;;;;;;5044042;28;20454;-58
2023/05/03 07:07:23;;;;;;;3.22;1.80;;;8.90;99.90;;;;;;5044274;28;20103;-58
2023/05/03 07:09:49;;;;;;;4.72;1.70;;;8.90;99.90;;;;;;5043094;28;20103;-54
2023/05/03 07:12:15;;;;;;;3.05;1.60;;;9.00;99.90;;;;;;5043807;28;20501;-58
2023/05/03 07:14:41;;;;;;;5.45;1.70;;;9.00;99.90;;;;;;5043523;28;20052;-53
2023/05/03 07:17:07;;;;;;;5.30;1.85;;;9.10;99.90;;;;;;5054212;28;20433;-59
2023/05/03 07:19:33;;;;;;;3.63;1.58;;;9.10;99.90;;;;;;5084072;28;20462;-54
2023/05/03 07:22:01;;;;;;;6.55;1.50;;;9.10;99.90;;;;;;5083675;28;20044;-54
2023/05/03 07:24:27;;;;;;;4.10;1.33;;;9.10;99.90;;;;;;5083549;28;20123;-58
2023/05/03 07:26:53;;;;;;;4.18;1.38;;;9.40;99.90;;;;;;5082416;28;20130;-49
2023/05/03 07:29:19;;;;;;;4.03;1.40;;;9.30;99.90;;;;;;5083492;28;20056;-54
2023/05/03 07:31:45;;;;;;;5.82;1.55;;;9.40;99.90;;;;;;5082844;28;20063;-53
2023/05/03 07:34:11;;;;;;;8.40;1.23;;;9.40;99.90;;;;;;5043362;28;20041;-58
2023/05/03 07:36:37;;;;;;;4.40;1.40;;;9.50;99.90;;;;;;5054047;28;20045;-60
2023/05/03 07:39:03;;;;;;;4.68;1.30;;;9.40;99.90;;;;;;5057690;28;20040;-55
2023/05/03 07:41:30;;;;;;;4.70;1.20;;;9.50;99.90;;;;;;5062821;28;20441;-52
2023/05/03 07:43:56;;;;;;;3.53;1.58;;;9.50;99.90;;;;;;5063091;28;20517;-60
2023/05/03 07:46:22;;;;;;;4.95;1.80;;;9.60;99.90;;;;;;5062747;28;20037;-57
2023/05/03 07:48:48;;;;;;;4.75;1.40;;;9.60;99.90;;;;;;5063402;28;20418;-59
2023/05/03 07:51:13;;;;;;;5.05;1.17;;;9.60;99.90;;;;;;5062491;28;20056;-51
2023/05/03 07:53:39;;;;;;;3.63;1.50;;;9.60;99.90;;;;;;5054153;28;20045;-55
2023/05/03 07:56:06;;;;;;;5.00;1.38;;;9.50;99.90;;;;;;5057342;28;20400;-59
2023/05/03 07:58:31;;;;;;;4.47;1.42;;;9.60;99.90;;;;;;5059761;28;20391;-60
2023/05/03 08:00:57;;;;;;;4.68;1.30;;;9.60;99.90;;;;;;5062265;28;20040;-57
2023/05/03 08:03:23;;;;;;;3.15;1.30;;;9.70;99.90;;;;;;5062825;28;20052;-52
2023/05/03 08:05:49;;;;;;;6.35;1.55;;;9.80;99.90;;;;;;5063751;28;20041;-56
2023/05/03 08:08:14;;;;;;;4.10;1.63;;;9.80;99.90;;;;;;5064457;28;20129;-59
2023/05/03 08:10:40;;;;;;;3.25;1.50;;;9.90;99.50;;;;;;5064942;28;20074;-59
2023/05/03 08:13:06;;;;;;;5.35;1.55;;;9.80;99.00;;;;;;5065173;28;20127;-56
2023/05/03 08:15:33;;;;;;;3.47;1.40;;;9.70;99.40;;;;;;5062384;28;20450;-56
2023/05/03 08:17:59;;;;;;;5.03;1.70;;;9.70;99.40;;;;;;5062300;28;20052;-61
2023/05/03 08:20:28;;;;;;;3.97;1.27;;;9.70;99.60;;;;;;5062352;28;20602;-58
2023/05/03 08:22:56;;;;;;;3.50;1.33;;;9.80;99.80;;;;;;5059704;28;20132;-51
2023/05/03 08:25:24;;;;;;;3.47;1.40;;;9.80;99.30;;;;;;5062467;28;20435;-58
2023/05/03 08:27:51;;;;;;;4.00;1.48;;;9.80;99.40;;;;;;5062289;28;20051;-55
2023/05/03 08:30:17;;;;;;;3.65;1.17;;;9.80;99.70;;;;;;5061560;28;20046;-53
2023/05/03 08:32:43;;;;;;;4.75;1.30;;;9.90;99.40;;;;;;5061870;28;20041;-57
2023/05/03 08:35:09;;;;;;;4.20;1.20;;;10.00;99.00;;;;;;5062274;28;20126;-50
2023/05/03 08:37:42;;;;;;;3.17;1.20;;;10.10;98.70;;;;;;5063562;28;20107;-57
2023/05/03 08:40:10;;;;;;;2.58;1.02;;;10.20;98.20;;;;;;5063944;28;20044;-57
2023/05/03 08:42:40;;;;;;;2.78;1.00;;;10.20;98.30;;;;;;5064293;28;20064;-55
2023/05/03 08:45:10;;;;;;;5.75;1.30;;;10.30;98.00;;;;;;5064297;28;20043;-53
2023/05/03 08:47:39;;;;;;;3.75;1.15;;;10.30;97.10;;;;;;5064284;28;20098;-50
2023/05/03 08:50:05;;;;;;;3.80;1.40;;;10.30;97.00;;;;;;5065025;28;20048;-54
2023/05/03 08:52:33;;;;;;;3.30;1.20;;;10.30;97.40;;;;;;5063470;28;20049;-55
2023/05/03 08:54:59;;;;;;;3.20;1.40;;;10.40;97.60;;;;;;5062649;28;20407;-54
2023/05/03 08:57:26;;;;;;;2.63;1.05;;;10.50;97.40;;;;;;5063408;28;20052;-56
2023/05/03 08:59:53;;;;;;;5.18;1.40;;;10.60;97.30;;;;;;5062530;28;20080;-53
2023/05/03 09:02:20;;;;;;;4.22;1.40;;;10.70;97.40;;;;;;5059449;28;20412;-57
2023/05/03 09:04:45;;;;;;;3.13;1.02;;;10.80;97.00;;;;;;5061091;28;20048;-55
2023/05/03 09:07:12;;;;;;;3.72;1.10;;;10.80;97.40;;;;;;5050298;28;20344;-56
2023/05/03 09:09:38;;;;;;;3.53;1.20;;;10.70;97.20;;;;;;5051362;28;20051;-57
2023/05/03 09:12:04;;;;;;;4.80;1.20;;;10.70;97.50;;;;;;5051777;28;20059;-55
2023/05/03 09:14:40;;;;;;;2.55;1.00;;;10.70;97.10;;;;;;5051198;28;20408;-57
2023/05/03 09:17:19;;;;;;;2.35;1.08;;;10.70;97.20;;;;;;5051040;28;20514;-52
2023/05/03 09:19:52;;;;;;;5.15;1.38;;;10.70;97.20;;;;;;5052655;28;20072;-55
2023/05/03 09:22:19;;;;;;;4.55;1.27;;;10.80;97.40;;;;;;5056059;28;20040;-58
2023/05/03 09:24:59;;;;;;;4.00;1.60;;;10.90;97.30;;;;;;5060377;28;20115;-53
2023/05/03 09:27:25;;;;;;;4.85;1.75;;;10.90;96.70;;;;;;5059390;28;20040;-59
2023/05/03 09:29:52;;;;;;;3.90;1.63;;;11.10;96.60;;;;;;5060619;28;20389;-54
2023/05/03 09:32:19;;;;;;;5.05;1.20;;;11.10;96.70;;;;;;5060752;28;20052;-63
2023/05/03 09:34:45;;;;;;;2.70;1.30;;;11.10;96.60;;;;;;5061540;28;20532;-54
2023/05/03 09:37:14;;;;;;;5.40;1.40;;;11.20;96.50;;;;;;5061584;28;20264;-63
2023/05/03 09:39:42;;;;;;;4.28;1.30;;;11.10;95.80;;;;;;5061206;28;20125;-56
2023/05/03 09:42:16;;;;;;;3.65;1.30;;;11.10;95.70;;;;;;5061882;28;20467;-63
2023/05/03 09:44:53;;;;;;;3.70;1.15;;;11.00;95.10;;;;;;5061841;28;20111;-64
2023/05/03 09:47:20;;;;;;;3.15;1.10;;;11.00;95.50;;;;;;5061532;28;20055;-62
2023/05/03 09:49:46;;;;;;;3.28;1.50;;;11.10;96.30;;;;;;5060619;28;20074;-58
2023/05/03 09:52:12;;;;;;;4.68;1.50;;;11.20;96.20;;;;;;5060527;28;20044;-64
2023/05/03 09:54:38;;;;;;;4.72;1.40;;;11.20;96.20;;;;;;5061062;28;20420;-53
2023/05/03 09:57:06;;;;;;;3.60;1.08;;;11.30;96.30;;;;;;5055685;28;20267;-63
2023/05/03 09:59:36;;;;;;;5.32;1.10;;;11.40;95.80;;;;;;5060277;28;20116;-64
2023/05/03 10:02:04;;;;;;;4.68;1.35;;;11.50;95.60;;;;;;5041451;28;20053;-59
2023/05/03 10:04:46;;;;;;;5.10;1.30;;;11.60;96.00;;;;;;5043685;28;20041;-63
2023/05/03 10:07:16;;;;;;;4.90;1.75;;;11.50;95.00;;;;;;5043675;28;20049;-62
2023/05/03 10:09:46;;;;;;;4.25;1.42;;;11.50;95.40;;;;;;5046674;28;20059;-51
2023/05/03 10:12:15;;;;;;;4.97;1.42;;;11.50;95.50;;;;;;5056006;28;20028;-63
2023/05/03 10:14:43;;;;;;;3.55;1.20;;;11.70;95.60;;;;;;5063772;28;20040;-62
2023/05/03 10:17:32;;;;;;;2.65;1.23;;;11.80;95.00;;;;;;5063528;28;20048;-60
2023/05/03 10:20:23;;;;;;;3.75;1.60;;;11.80;94.10;;;;;;5063514;28;20048;-59
2023/05/03 10:23:04;;;;;;;3.35;1.23;;;11.90;94.20;;;;;;5063889;28;20044;-55
2023/05/03 10:25:30;;;;;;;3.42;1.30;;;11.90;94.10;;;;;;5063394;28;20094;-59
2023/05/03 10:28:04;;;;;;;4.97;1.40;;;11.90;94.60;;;;;;5064578;28;20044;-62
2023/05/03 10:30:33;;;;;;;4.15;1.48;;;11.90;94.00;;;;;;5062647;28;20097;-66
2023/05/03 10:33:20;;;;;;;3.58;1.50;;;12.00;94.40;;;;;;5063201;28;20633;-59
2023/05/03 10:35:53;;;;;;;2.88;1.10;;;12.00;93.60;;;;;;5055882;28;20063;-55
2023/05/03 10:38:23;;;;;;;4.13;1.30;;;12.20;93.20;;;;;;5063574;28;20075;-63
2023/05/03 10:40:49;;;;;;;3.65;1.60;;;12.30;93.00;;;;;;5064019;28;20722;-66
2023/05/03 10:43:33;;;;;;;2.72;1.50;;;12.30;93.10;;;;;;5063592;28;20055;-59
2023/05/03 10:46:03;;;;;;;3.33;1.50;;;12.40;92.70;;;;;;5062786;28;20051;-62
2023/05/03 10:48:30;;;;;;;3.70;1.40;;;12.80;93.10;;;;;;5062846;28;20064;-60
2023/05/03 10:51:16;;;;;;;3.70;1.40;;;13.10;93.10;;;;;;5063853;28;20089;-65
2023/05/03 10:53:43;;;;;;;2.97;1.42;;;13.30;92.50;;;;;;5064072;28;20045;-65
2023/05/03 10:56:11;;;;;;;5.63;1.50;;;13.40;92.60;;;;;;5063206;28;20056;-63
2023/05/03 10:58:41;;;;;;;3.30;1.40;;;13.50;92.50;;;;;;5063676;28;20847;-60
2023/05/03 11:01:09;;;;;;;4.22;1.20;;;13.50;92.20;;;;;;5064417;28;20509;-62
2023/05/03 11:04:01;;;;;;;3.35;1.25;;;13.40;92.30;;;;;;5066456;28;20045;-62
2023/05/03 11:06:27;;;;;;;4.30;1.65;;;13.40;92.20;;;;;;5065050;28;20056;-64
2023/05/03 11:08:52;;;;;;;4.78;1.50;;;13.30;92.00;;;;;;5065970;28;20052;-59
2023/05/03 11:11:18;;;;;;;4.25;1.20;;;13.30;92.00;;;;;;5067064;28;20106;-53
2023/05/03 11:13:43;;;;;;;4.82;1.63;;;13.40;92.00;;;;;;5066888;28;20072;-62
2023/05/03 11:16:09;;;;;;;4.05;1.50;;;13.70;92.10;;;;;;5065821;28;20067;-61
2023/05/03 11:18:35;;;;;;;1.85;1.20;;;13.80;92.00;;;;;;5067072;28;20032;-55
2023/05/03 11:21:01;;;;;;;3.25;1.50;;;13.70;91.70;;;;;;5066984;28;20045;-62
2023/05/03 11:23:27;;;;;;;3.53;1.48;;;13.80;91.80;;;;;;5065273;28;20037;-64
2023/05/03 11:25:53;;;;;;;3.70;1.40;;;13.80;90.90;;;;;;5066596;28;20105;-61
2023/05/03 11:28:20;;;;;;;4.65;1.48;;;13.90;91.20;;;;;;5066950;28;20102;-54
2023/05/03 11:30:46;;;;;;;5.22;1.55;;;14.10;90.80;;;;;;5052367;28;20045;-52
2023/05/03 11:33:11;;;;;;;3.55;1.40;;;14.30;90.80;;;;;;5044356;28;20048;-57
2023/05/03 11:35:38;;;;;;;4.45;1.40;;;14.50;91.20;;;;;;5053219;28;20653;-66
2023/05/03 11:38:04;;;;;;;4.15;1.40;;;14.50;91.10;;;;;;5066856;28;20041;-63
2023/05/03 11:40:30;;;;;;;3.83;1.83;;;14.40;91.20;;;;;;5065125;28;20044;-59
2023/05/03 11:42:57;;;;;;;5.15;1.77;;;14.30;91.40;;;;;;5064718;28;20513;-63
2023/05/03 11:45:29;;;;;;;3.55;1.63;;;14.30;91.20;;;;;;5064858;28;20399;-59
2023/05/03 11:47:56;;;;;;;6.80;1.75;;;14.30;90.90;;;;;;5065704;28;20040;-65
2023/05/03 11:50:46;;;;;;;4.53;1.80;;;14.60;91.90;;;;;;5061060;28;20037;-65
2023/05/03 11:53:13;;;;;;;5.93;1.85;;;15.20;92.20;;;;;;5046119;28;20052;-56
2023/05/03 11:55:46;;;;;;;3.13;1.30;;;15.70;91.20;;;;;;5041711;28;20095;-63
2023/05/03 11:58:20;;;;;;;4.55;1.42;;;15.80;90.30;;;;;;5044379;28;20045;-52
2023/05/03 12:00:48;;;;;;;5.18;1.98;;;16.00;90.40;;;;;;5044137;28;20095;-60
2023/05/03 12:03:28;;;;;;;3.58;1.48;;;15.90;90.30;;;;;;5042724;28;20454;-55
2023/05/03 12:05:55;;;;;;;5.55;1.40;;;15.80;87.60;;;;;;5047407;28;20040;-63
2023/05/03 12:08:26;;;;;;;3.17;1.52;;;15.70;90.30;;;;;;5064945;28;20127;-57
2023/05/03 12:10:53;;;;;;;3.45;1.30;;;15.80;90.70;;;;;;5068484;28;20124;-56
2023/05/03 12:13:30;;;;;;;6.35;1.60;;;15.90;90.40;;;;;;5083168;28;20181;-54
2023/05/03 12:15:59;;;;;;;3.63;1.70;;;16.00;89.20;;;;;;5073988;28;20098;-60
2023/05/03 12:18:25;;;;;;;4.53;1.80;;;16.10;90.50;;;;;;5062609;28;20135;-62
2023/05/03 12:20:58;;;;;;;7.03;1.67;;;16.50;90.10;;;;;;5062881;28;20075;-66
2023/05/03 12:23:25;;;;;;;2.83;1.52;;;16.60;89.50;;;;;;5067917;28;20599;-66
2023/05/03 12:25:51;;;;;;;7.20;1.58;;;16.40;88.50;;;;;;5082699;28;20413;-58
2023/05/03 12:28:17;;;;;;;3.80;1.40;;;16.10;88.80;;;;;;5085763;28;20044;-63
2023/05/03 12:30:43;;;;;;;3.05;1.65;;;16.00;89.70;;;;;;5083576;28;20135;-66
2023/05/03 12:33:09;;;;;;;4.70;1.70;;;16.00;90.30;;;;;;5084673;28;20040;-58
2023/05/03 12:35:35;;;;;;;4.03;1.70;;;15.90;90.20;;;;;;5084890;28;20723;-64
2023/05/03 12:38:02;;;;;;;3.75;1.60;;;15.60;89.60;;;;;;5082205;28;20089;-53
2023/05/03 12:40:29;;;;;;;4.95;1.60;;;15.20;90.30;;;;;;5082814;28;20063;-55
2023/05/03 12:42:57;;;;;;;7.32;1.90;;;15.00;90.30;;;;;;5082548;28;20505;-62
2023/05/03 12:45:27;;;;;;;4.03;1.80;;;14.70;90.90;;;;;;5080310;28;20214;-55
2023/05/03 12:47:53;;;;;;;4.55;1.75;;;14.70;90.30;;;;;;5082497;28;20970;-61
2023/05/03 12:50:19;;;;;;;4.60;1.70;;;14.60;89.30;;;;;;5083053;28;20040;-61
2023/05/03 12:52:45;;;;;;;5.53;1.60;;;14.40;90.00;;;;;;5083515;28;20040;-64
2023/05/03 12:55:10;;;;;;;5.97;1.90;;;14.30;89.90;;;;;;5083354;28;20059;-59